Progresso, New Mexico
Current Conditions -  °F | °C
As of 7:35 PM on Sunday 23 Nov 2014 (Local Time) from K0E0 Reporting Station
Clear Clear  
Wind Chill: -5°   Ceiling: Unl
Heat Index:   Visibility: 10mi
Dew Point: -12°   Wind: 17mph
Humidity: 39%   Direction: 290°WNW
Pressure: 29.97"   Gusts: 28mph
Location:  34.4464°N, 106.01°W
Report Text: K0E0 240235Z AUTO 29015G24KT 10SM CLR 01/M12 A2997 RMK AO2 T00101116
Loading
Personal Weather Stations






























Interactive Weather Map New forecast layout! Learn more

10-Day Weather Forecast

Advertisements
Track Severe Weather on mobile